Borger, TX

12:00 PM CST on November 22, 2014 (GMT -0600)
Yucca Park | Change Station
CLOSE
Current Station
Personal Weather Station
Location: Borger, TX
Elevation: 3156 ft
Nearby Weather Stations

Elev 3156 ft 35.65 °N, 101.38 °W | Updated 1 second ago

Clear
Clear
66.0 °F
Feels Like 66.0 °F
N
3.0
Wind Variable Wind from South
Gusts 12.0 mph

Today
High -- | Low -- °F
--% Chance of Precip.
Yesterday
High -- | Low -- °F
Precip. -- in
7:28 AM 5:34 PM
New Moon, 0% visible
Pressure 29.82 in
Visibility 10.0 miles
Clouds Clear
Dew Point 39 °F
Humidity 37%
Rainfall 0.00 in
Snow Depth Not available.
UV 4 out of 12
Pollen 5.80 out of 12
Air Quality Not available.
Flu Activity Not available.
METAR KBGD 221751Z AUTO 24011KT 10SM CLR 18/03 A2987 RMK AO2 SLP096 T01780028 10178 20056 58020

More Conditions Fewer Conditions

Pressure 29.82 in
Visibility 10.0 miles
Clouds Clear
Dew Point 39 °F
Humidity 37%
Rainfall 0.00 in
Snow Depth Not available.
UV 4 out of 12
Pollen 5.80 out of 12
Air Quality Not available.
Flu Activity Not available.
METAR KBGD 221751Z AUTO 24011KT 10SM CLR 18/03 A2987 RMK AO2 SLP096 T01780028 10178 20056 58020

More Conditions Fewer Conditions

10-Day Weather Forecast

Almanac

Astronomy

Nov. 22, 2014 Rise Set
Actual Time
Civil Twilight
Nautical Twilight
Astronomical Twilight
Moon
Length of Visible Light
Length of Day
Tomorrow will be .
, % of the Moon is Illuminated

Today's Extremes

State Highs State Lows

Community

WunderPhotos

Upload Photos

1,772,871 photos uploaded!

WunderBlogs® & News

Nearby

Air Quality

  Air Quality AQ Index Pollutant
Not available.

Snow Depth

Station Depth Elevation

Earthquake Activity

City Distance Mag. Time & Date
Minimum magnitude displayed is 2.5.

Coastal Water Temperatures

Place Temperature

Nearby Weather Stations